sensor_id;sensor_type;location;lat;lon;timestamp;temperature;humidity
68912;SHT31;55953;51.650;-0.522;2023-10-08T00:01:11;16.07;79.33
68912;SHT31;55953;51.650;-0.522;2023-10-08T00:03:40;16.02;79.53
68912;SHT31;55953;51.650;-0.522;2023-10-08T00:06:16;15.95;79.72
68912;SHT31;55953;51.650;-0.522;2023-10-08T00:08:48;15.86;80.09
68912;SHT31;55953;51.650;-0.522;2023-10-08T00:11:18;15.80;80.43
68912;SHT31;55953;51.650;-0.522;2023-10-08T00:13:46;15.76;80.60
68912;SHT31;55953;51.650;-0.522;2023-10-08T00:16:16;15.72;80.92
68912;SHT31;55953;51.650;-0.522;2023-10-08T00:18:46;15.73;81.20
68912;SHT31;55953;51.650;-0.522;2023-10-08T00:21:17;15.71;81.31
68912;SHT31;55953;51.650;-0.522;2023-10-08T00:23:47;15.67;81.49
68912;SHT31;55953;51.650;-0.522;2023-10-08T00:26:27;15.62;81.79
68912;SHT31;55953;51.650;-0.522;2023-10-08T00:29:00;15.64;81.98
68912;SHT31;55953;51.650;-0.522;2023-10-08T00:31:34;15.63;82.07
68912;SHT31;55953;51.650;-0.522;2023-10-08T00:34:06;15.62;82.20
68912;SHT31;55953;51.650;-0.522;2023-10-08T00:36:42;15.64;82.23
68912;SHT31;55953;51.650;-0.522;2023-10-08T00:39:13;15.66;82.18
68912;SHT31;55953;51.650;-0.522;2023-10-08T00:41:44;15.64;82.27
68912;SHT31;55953;51.650;-0.522;2023-10-08T00:44:13;15.62;82.25
68912;SHT31;55953;51.650;-0.522;2023-10-08T00:46:51;15.63;82.28
68912;SHT31;55953;51.650;-0.522;2023-10-08T00:49:20;15.66;82.29
68912;SHT31;55953;51.650;-0.522;2023-10-08T00:52:08;15.69;82.28
68912;SHT31;55953;51.650;-0.522;2023-10-08T00:54:38;15.70;82.10
68912;SHT31;55953;51.650;-0.522;2023-10-08T00:57:27;15.68;82.22
68912;SHT31;55953;51.650;-0.522;2023-10-08T00:59:57;15.68;82.29
68912;SHT31;55953;51.650;-0.522;2023-10-08T01:02:28;15.68;82.26
68912;SHT31;55953;51.650;-0.522;2023-10-08T01:05:13;15.68;82.34
68912;SHT31;55953;51.650;-0.522;2023-10-08T01:07:51;15.69;82.25
68912;SHT31;55953;51.650;-0.522;2023-10-08T01:10:22;15.68;82.18
68912;SHT31;55953;51.650;-0.522;2023-10-08T01:12:52;15.67;82.22
68912;SHT31;55953;51.650;-0.522;2023-10-08T01:15:29;15.63;82.36
68912;SHT31;55953;51.650;-0.522;2023-10-08T01:17:58;15.63;82.51
68912;SHT31;55953;51.650;-0.522;2023-10-08T01:20:28;15.65;82.55
68912;SHT31;55953;51.650;-0.522;2023-10-08T01:23:03;15.62;82.57
68912;SHT31;55953;51.650;-0.522;2023-10-08T01:25:49;15.58;82.68
68912;SHT31;55953;51.650;-0.522;2023-10-08T01:28:24;15.57;82.75
68912;SHT31;55953;51.650;-0.522;2023-10-08T01:30:59;15.56;82.74
68912;SHT31;55953;51.650;-0.522;2023-10-08T01:33:32;15.54;82.75
68912;SHT31;55953;51.650;-0.522;2023-10-08T01:36:06;15.55;82.79
68912;SHT31;55953;51.650;-0.522;2023-10-08T01:38:40;15.60;82.62
68912;SHT31;55953;51.650;-0.522;2023-10-08T01:41:16;15.58;82.50
68912;SHT31;55953;51.650;-0.522;2023-10-08T01:43:56;15.57;82.61
68912;SHT31;55953;51.650;-0.522;2023-10-08T01:46:27;15.58;82.63
68912;SHT31;55953;51.650;-0.522;2023-10-08T01:48:55;15.62;82.56
68912;SHT31;55953;51.650;-0.522;2023-10-08T01:51:37;15.62;82.40
68912;SHT31;55953;51.650;-0.522;2023-10-08T01:54:06;15.67;82.32
68912;SHT31;55953;51.650;-0.522;2023-10-08T01:56:39;15.71;82.12
68912;SHT31;55953;51.650;-0.522;2023-10-08T01:59:10;15.69;82.10
68912;SHT31;55953;51.650;-0.522;2023-10-08T02:01:42;15.71;81.85
68912;SHT31;55953;51.650;-0.522;2023-10-08T02:04:13;15.68;81.76
68912;SHT31;55953;51.650;-0.522;2023-10-08T02:06:44;15.65;81.62
68912;SHT31;55953;51.650;-0.522;2023-10-08T02:09:13;15.61;81.71
68912;SHT31;55953;51.650;-0.522;2023-10-08T02:11:46;15.61;81.71
68912;SHT31;55953;51.650;-0.522;2023-10-08T02:14:20;15.57;81.60
68912;SHT31;55953;51.650;-0.522;2023-10-08T02:16:50;15.47;81.63
68912;SHT31;55953;51.650;-0.522;2023-10-08T02:19:23;15.34;81.78
68912;SHT31;55953;51.650;-0.522;2023-10-08T02:21:55;15.24;81.91
68912;SHT31;55953;51.650;-0.522;2023-10-08T02:24:25;15.16;81.99
68912;SHT31;55953;51.650;-0.522;2023-10-08T02:26:54;15.10;82.11
68912;SHT31;55953;51.650;-0.522;2023-10-08T02:29:25;15.08;82.19
68912;SHT31;55953;51.650;-0.522;2023-10-08T02:31:57;15.17;82.19
68912;SHT31;55953;51.650;-0.522;2023-10-08T02:34:26;15.21;81.74
68912;SHT31;55953;51.650;-0.522;2023-10-08T02:36:54;15.15;81.76
68912;SHT31;55953;51.650;-0.522;2023-10-08T02:39:22;15.10;81.74
68912;SHT31;55953;51.650;-0.522;2023-10-08T02:41:53;15.02;81.89
68912;SHT31;55953;51.650;-0.522;2023-10-08T02:44:24;15.03;82.11
68912;SHT31;55953;51.650;-0.522;2023-10-08T02:46:53;15.07;81.78
68912;SHT31;55953;51.650;-0.522;2023-10-08T02:49:22;15.01;81.83
68912;SHT31;55953;51.650;-0.522;2023-10-08T02:51:53;14.99;81.94
68912;SHT31;55953;51.650;-0.522;2023-10-08T02:54:22;15.02;81.93
68912;SHT31;55953;51.650;-0.522;2023-10-08T02:56:58;14.99;81.66
68912;SHT31;55953;51.650;-0.522;2023-10-08T02:59:33;14.86;81.63
68912;SHT31;55953;51.650;-0.522;2023-10-08T03:02:08;14.77;81.73
68912;SHT31;55953;51.650;-0.522;2023-10-08T03:04:49;14.71;81.89
68912;SHT31;55953;51.650;-0.522;2023-10-08T03:07:20;14.69;81.86
68912;SHT31;55953;51.650;-0.522;2023-10-08T03:10:00;14.68;81.85
68912;SHT31;55953;51.650;-0.522;2023-10-08T03:12:32;14.65;81.75
68912;SHT31;55953;51.650;-0.522;2023-10-08T03:15:04;14.57;81.80
68912;SHT31;55953;51.650;-0.522;2023-10-08T03:17:52;14.41;81.93
68912;SHT31;55953;51.650;-0.522;2023-10-08T03:20:21;14.31;82.06
68912;SHT31;55953;51.650;-0.522;2023-10-08T03:23:07;14.24;82.13
68912;SHT31;55953;51.650;-0.522;2023-10-08T03:25:56;14.18;82.25
68912;SHT31;55953;51.650;-0.522;2023-10-08T03:28:45;14.10;82.14
68912;SHT31;55953;51.650;-0.522;2023-10-08T03:31:13;14.08;82.21
68912;SHT31;55953;51.650;-0.522;2023-10-08T03:33:46;14.02;82.31
68912;SHT31;55953;51.650;-0.522;2023-10-08T03:36:19;14.14;82.54
68912;SHT31;55953;51.650;-0.522;2023-10-08T03:39:01;14.15;82.09
68912;SHT31;55953;51.650;-0.522;2023-10-08T03:41:42;14.04;82.18
68912;SHT31;55953;51.650;-0.522;2023-10-08T03:44:19;13.98;82.29
68912;SHT31;55953;51.650;-0.522;2023-10-08T03:46:48;13.90;82.34
68912;SHT31;55953;51.650;-0.522;2023-10-08T03:49:15;13.86;82.41
68912;SHT31;55953;51.650;-0.522;2023-10-08T03:51:50;13.82;82.48
68912;SHT31;55953;51.650;-0.522;2023-10-08T03:54:20;13.82;82.74
68912;SHT31;55953;51.650;-0.522;2023-10-08T03:56:57;13.75;82.42
68912;SHT31;55953;51.650;-0.522;2023-10-08T03:59:25;13.65;82.54
68912;SHT31;55953;51.650;-0.522;2023-10-08T04:02:01;13.57;82.74
68912;SHT31;55953;51.650;-0.522;2023-10-08T04:04:49;13.55;82.90
68912;SHT31;55953;51.650;-0.522;2023-10-08T04:07:27;13.54;82.89
68912;SHT31;55953;51.650;-0.522;2023-10-08T04:10:01;13.53;83.05
68912;SHT31;55953;51.650;-0.522;2023-10-08T04:12:38;13.51;83.23
68912;SHT31;55953;51.650;-0.522;2023-10-08T04:15:12;13.51;83.43
68912;SHT31;55953;51.650;-0.522;2023-10-08T04:17:44;13.55;83.50
68912;SHT31;55953;51.650;-0.522;2023-10-08T04:20:18;13.60;83.22
68912;SHT31;55953;51.650;-0.522;2023-10-08T04:23:04;13.60;83.22
68912;SHT31;55953;51.650;-0.522;2023-10-08T04:25:48;13.61;83.29
68912;SHT31;55953;51.650;-0.522;2023-10-08T04:28:22;13.68;83.42
68912;SHT31;55953;51.650;-0.522;2023-10-08T04:30:56;13.64;83.05
68912;SHT31;55953;51.650;-0.522;2023-10-08T04:33:28;13.55;83.21
68912;SHT31;55953;51.650;-0.522;2023-10-08T04:36:02;13.53;83.26
68912;SHT31;55953;51.650;-0.522;2023-10-08T04:38:30;13.56;83.17
68912;SHT31;55953;51.650;-0.522;2023-10-08T04:41:04;13.52;83.09
68912;SHT31;55953;51.650;-0.522;2023-10-08T04:43:36;13.48;83.12
68912;SHT31;55953;51.650;-0.522;2023-10-08T04:46:05;13.40;83.08
68912;SHT31;55953;51.650;-0.522;2023-10-08T04:48:46;13.36;83.24
68912;SHT31;55953;51.650;-0.522;2023-10-08T04:51:14;13.35;83.43
68912;SHT31;55953;51.650;-0.522;2023-10-08T04:53:42;13.36;83.43
68912;SHT31;55953;51.650;-0.522;2023-10-08T04:56:12;13.41;83.53
68912;SHT31;55953;51.650;-0.522;2023-10-08T04:58:50;13.47;83.35
68912;SHT31;55953;51.650;-0.522;2023-10-08T05:01:19;13.51;83.28
68912;SHT31;55953;51.650;-0.522;2023-10-08T05:04:06;13.51;82.91
68912;SHT31;55953;51.650;-0.522;2023-10-08T05:06:34;13.40;82.98
68912;SHT31;55953;51.650;-0.522;2023-10-08T05:09:03;13.36;83.17
68912;SHT31;55953;51.650;-0.522;2023-10-08T05:11:52;13.31;83.23
68912;SHT31;55953;51.650;-0.522;2023-10-08T05:14:38;13.29;83.27
68912;SHT31;55953;51.650;-0.522;2023-10-08T05:17:23;13.33;83.38
68912;SHT31;55953;51.650;-0.522;2023-10-08T05:20:00;13.42;83.14
68912;SHT31;55953;51.650;-0.522;2023-10-08T05:22:31;13.43;82.94
68912;SHT31;55953;51.650;-0.522;2023-10-08T05:24:59;13.35;82.82
68912;SHT31;55953;51.650;-0.522;2023-10-08T05:27:45;13.28;83.08
68912;SHT31;55953;51.650;-0.522;2023-10-08T05:30:17;13.37;83.03
68912;SHT31;55953;51.650;-0.522;2023-10-08T05:32:56;13.40;82.74
68912;SHT31;55953;51.650;-0.522;2023-10-08T05:35:36;13.34;82.50
68912;SHT31;55953;51.650;-0.522;2023-10-08T05:38:08;13.20;82.54
68912;SHT31;55953;51.650;-0.522;2023-10-08T05:40:51;13.17;82.81
68912;SHT31;55953;51.650;-0.522;2023-10-08T05:43:28;13.23;82.79
68912;SHT31;55953;51.650;-0.522;2023-10-08T05:46:08;13.27;82.67
68912;SHT31;55953;51.650;-0.522;2023-10-08T05:48:49;13.24;82.62
68912;SHT31;55953;51.650;-0.522;2023-10-08T05:51:29;13.20;82.73
68912;SHT31;55953;51.650;-0.522;2023-10-08T05:56:59;13.17;82.84
68912;SHT31;55953;51.650;-0.522;2023-10-08T05:59:38;13.13;82.68
68912;SHT31;55953;51.650;-0.522;2023-10-08T06:02:23;13.06;82.84
68912;SHT31;55953;51.650;-0.522;2023-10-08T06:05:03;13.00;82.95
68912;SHT31;55953;51.650;-0.522;2023-10-08T06:07:44;13.00;83.05
68912;SHT31;55953;51.650;-0.522;2023-10-08T06:10:23;13.04;83.10
68912;SHT31;55953;51.650;-0.522;2023-10-08T06:13:01;13.09;83.08
68912;SHT31;55953;51.650;-0.522;2023-10-08T06:15:37;13.09;82.92
68912;SHT31;55953;51.650;-0.522;2023-10-08T06:18:24;13.05;82.94
68912;SHT31;55953;51.650;-0.522;2023-10-08T06:21:04;13.05;82.99
68912;SHT31;55953;51.650;-0.522;2023-10-08T06:23:40;13.04;82.96
68912;SHT31;55953;51.650;-0.522;2023-10-08T06:26:10;13.06;83.05
68912;SHT31;55953;51.650;-0.522;2023-10-08T06:28:38;13.07;82.98
68912;SHT31;55953;51.650;-0.522;2023-10-08T06:31:09;13.03;82.96
68912;SHT31;55953;51.650;-0.522;2023-10-08T06:33:44;13.05;82.99
68912;SHT31;55953;51.650;-0.522;2023-10-08T06:36:12;13.08;83.07
68912;SHT31;55953;51.650;-0.522;2023-10-08T06:38:44;13.05;82.87
68912;SHT31;55953;51.650;-0.522;2023-10-08T06:41:17;13.05;83.00
68912;SHT31;55953;51.650;-0.522;2023-10-08T06:44:01;13.05;83.02
68912;SHT31;55953;51.650;-0.522;2023-10-08T06:46:42;13.02;83.03
68912;SHT31;55953;51.650;-0.522;2023-10-08T06:49:10;12.99;83.07
68912;SHT31;55953;51.650;-0.522;2023-10-08T06:51:40;13.04;83.14
68912;SHT31;55953;51.650;-0.522;2023-10-08T06:54:11;13.11;82.98
68912;SHT31;55953;51.650;-0.522;2023-10-08T06:56:42;13.13;82.99
68912;SHT31;55953;51.650;-0.522;2023-10-08T06:59:14;13.13;83.07
68912;SHT31;55953;51.650;-0.522;2023-10-08T07:01:44;13.15;83.15
68912;SHT31;55953;51.650;-0.522;2023-10-08T07:04:18;13.27;83.29
68912;SHT31;55953;51.650;-0.522;2023-10-08T07:06:50;13.44;83.06
68912;SHT31;55953;51.650;-0.522;2023-10-08T07:09:18;13.51;83.04
68912;SHT31;55953;51.650;-0.522;2023-10-08T07:11:55;13.62;83.05
68912;SHT31;55953;51.650;-0.522;2023-10-08T07:14:25;13.79;82.82
68912;SHT31;55953;51.650;-0.522;2023-10-08T07:16:57;13.99;82.46
68912;SHT31;55953;51.650;-0.522;2023-10-08T07:19:29;14.14;82.22
68912;SHT31;55953;51.650;-0.522;2023-10-08T07:22:07;14.25;82.23
68912;SHT31;55953;51.650;-0.522;2023-10-08T07:24:56;14.33;82.21
68912;SHT31;55953;51.650;-0.522;2023-10-08T07:27:25;14.38;82.31
68912;SHT31;55953;51.650;-0.522;2023-10-08T07:30:00;14.40;82.45
68912;SHT31;55953;51.650;-0.522;2023-10-08T07:32:30;14.51;82.48
68912;SHT31;55953;51.650;-0.522;2023-10-08T07:34:59;14.54;82.36
68912;SHT31;55953;51.650;-0.522;2023-10-08T07:37:47;14.52;82.48
68912;SHT31;55953;51.650;-0.522;2023-10-08T07:40:14;14.54;82.61
68912;SHT31;55953;51.650;-0.522;2023-10-08T07:42:43;14.61;82.67
68912;SHT31;55953;51.650;-0.522;2023-10-08T07:45:11;14.66;82.53
68912;SHT31;55953;51.650;-0.522;2023-10-08T07:47:45;14.66;82.36
68912;SHT31;55953;51.650;-0.522;2023-10-08T07:50:14;14.75;82.32
68912;SHT31;55953;51.650;-0.522;2023-10-08T07:52:43;14.93;81.93
68912;SHT31;55953;51.650;-0.522;2023-10-08T07:55:12;15.05;81.82
68912;SHT31;55953;51.650;-0.522;2023-10-08T07:57:46;15.14;81.92
68912;SHT31;55953;51.650;-0.522;2023-10-08T08:00:14;15.26;82.01
68912;SHT31;55953;51.650;-0.522;2023-10-08T08:02:47;15.38;81.88
68912;SHT31;55953;51.650;-0.522;2023-10-08T08:05:15;15.47;81.64
68912;SHT31;55953;51.650;-0.522;2023-10-08T08:07:44;15.58;81.71
68912;SHT31;55953;51.650;-0.522;2023-10-08T08:10:13;15.78;81.61
68912;SHT31;55953;51.650;-0.522;2023-10-08T08:12:41;15.94;81.26
68912;SHT31;55953;51.650;-0.522;2023-10-08T08:15:09;15.98;81.23
68912;SHT31;55953;51.650;-0.522;2023-10-08T08:17:43;16.06;81.24
68912;SHT31;55953;51.650;-0.522;2023-10-08T08:20:15;16.13;81.20
68912;SHT31;55953;51.650;-0.522;2023-10-08T08:22:46;16.19;81.28
68912;SHT31;55953;51.650;-0.522;2023-10-08T08:25:17;16.28;81.32
68912;SHT31;55953;51.650;-0.522;2023-10-08T08:28:01;16.47;81.21
68912;SHT31;55953;51.650;-0.522;2023-10-08T08:30:32;16.65;80.85
68912;SHT31;55953;51.650;-0.522;2023-10-08T08:33:02;16.73;80.35
68912;SHT31;55953;51.650;-0.522;2023-10-08T08:35:37;16.81;80.31
68912;SHT31;55953;51.650;-0.522;2023-10-08T08:38:05;16.96;80.15
68912;SHT31;55953;51.650;-0.522;2023-10-08T08:40:36;17.03;79.98
68912;SHT31;55953;51.650;-0.522;2023-10-08T08:43:04;17.09;79.97
68912;SHT31;55953;51.650;-0.522;2023-10-08T08:45:34;17.17;80.05
68912;SHT31;55953;51.650;-0.522;2023-10-08T08:48:03;17.35;79.81
68912;SHT31;55953;51.650;-0.522;2023-10-08T08:50:34;17.42;79.54
68912;SHT31;55953;51.650;-0.522;2023-10-08T08:53:05;17.56;79.48
68912;SHT31;55953;51.650;-0.522;2023-10-08T08:55:34;17.67;79.30
68912;SHT31;55953;51.650;-0.522;2023-10-08T08:58:03;17.73;79.31
68912;SHT31;55953;51.650;-0.522;2023-10-08T09:00:32;17.88;79.38
68912;SHT31;55953;51.650;-0.522;2023-10-08T09:03:01;18.01;79.05
68912;SHT31;55953;51.650;-0.522;2023-10-08T09:05:35;18.12;78.92
68912;SHT31;55953;51.650;-0.522;2023-10-08T09:08:05;18.17;78.78
68912;SHT31;55953;51.650;-0.522;2023-10-08T09:10:34;18.28;78.73
68912;SHT31;55953;51.650;-0.522;2023-10-08T09:13:05;18.39;78.42
68912;SHT31;55953;51.650;-0.522;2023-10-08T09:15:37;18.43;78.24
68912;SHT31;55953;51.650;-0.522;2023-10-08T09:18:05;18.50;78.24
68912;SHT31;55953;51.650;-0.522;2023-10-08T09:20:37;18.63;78.14
68912;SHT31;55953;51.650;-0.522;2023-10-08T09:25:49;18.88;77.44
68912;SHT31;55953;51.650;-0.522;2023-10-08T09:28:18;18.94;77.33
68912;SHT31;55953;51.650;-0.522;2023-10-08T09:30:46;19.00;77.28
68912;SHT31;55953;51.650;-0.522;2023-10-08T09:33:15;19.08;77.39
68912;SHT31;55953;51.650;-0.522;2023-10-08T09:35:45;19.16;76.98
68912;SHT31;55953;51.650;-0.522;2023-10-08T09:38:14;19.20;77.02
68912;SHT31;55953;51.650;-0.522;2023-10-08T09:40:51;19.35;76.73
68912;SHT31;55953;51.650;-0.522;2023-10-08T09:43:20;19.45;76.56
68912;SHT31;55953;51.650;-0.522;2023-10-08T09:45:53;19.57;76.21
68912;SHT31;55953;51.650;-0.522;2023-10-08T09:48:50;19.61;75.13
68912;SHT31;55953;51.650;-0.522;2023-10-08T09:51:30;19.57;74.98
68912;SHT31;55953;51.650;-0.522;2023-10-08T09:54:10;19.59;75.17
68912;SHT31;55953;51.650;-0.522;2023-10-08T09:56:45;19.59;74.68
68912;SHT31;55953;51.650;-0.522;2023-10-08T09:59:15;19.59;74.75
68912;SHT31;55953;51.650;-0.522;2023-10-08T10:01:44;19.71;74.92
68912;SHT31;55953;51.650;-0.522;2023-10-08T10:04:22;19.85;75.01
68912;SHT31;55953;51.650;-0.522;2023-10-08T10:07:01;19.99;74.71
68912;SHT31;55953;51.650;-0.522;2023-10-08T10:09:43;20.08;74.57
68912;SHT31;55953;51.650;-0.522;2023-10-08T10:12:18;20.19;74.50
68912;SHT31;55953;51.650;-0.522;2023-10-08T10:14:54;20.33;73.74
68912;SHT31;55953;51.650;-0.522;2023-10-08T10:17:26;20.43;73.71
68912;SHT31;55953;51.650;-0.522;2023-10-08T10:20:11;20.57;73.14
68912;SHT31;55953;51.650;-0.522;2023-10-08T10:22:43;20.68;73.02
68912;SHT31;55953;51.650;-0.522;2023-10-08T10:25:12;20.80;72.62
68912;SHT31;55953;51.650;-0.522;2023-10-08T10:30:21;20.95;71.39
68912;SHT31;55953;51.650;-0.522;2023-10-08T10:32:51;21.14;71.26
68912;SHT31;55953;51.650;-0.522;2023-10-08T10:35:20;21.24;70.92
68912;SHT31;55953;51.650;-0.522;2023-10-08T10:37:48;21.32;70.59
68912;SHT31;55953;51.650;-0.522;2023-10-08T10:40:19;21.41;70.58
68912;SHT31;55953;51.650;-0.522;2023-10-08T10:43:07;21.47;70.57
68912;SHT31;55953;51.650;-0.522;2023-10-08T10:45:43;21.53;70.60
68912;SHT31;55953;51.650;-0.522;2023-10-08T10:48:12;21.54;70.27
68912;SHT31;55953;51.650;-0.522;2023-10-08T10:50:47;21.54;70.16
68912;SHT31;55953;51.650;-0.522;2023-10-08T10:53:36;21.51;69.55
68912;SHT31;55953;51.650;-0.522;2023-10-08T10:56:27;21.46;69.22
68912;SHT31;55953;51.650;-0.522;2023-10-08T10:58:58;21.49;69.18
68912;SHT31;55953;51.650;-0.522;2023-10-08T11:01:27;21.51;69.68
68912;SHT31;55953;51.650;-0.522;2023-10-08T11:03:57;21.55;69.28
68912;SHT31;55953;51.650;-0.522;2023-10-08T11:06:25;21.60;68.50
68912;SHT31;55953;51.650;-0.522;2023-10-08T11:08:54;21.59;67.98
68912;SHT31;55953;51.650;-0.522;2023-10-08T11:11:27;21.62;67.94
68912;SHT31;55953;51.650;-0.522;2023-10-08T11:13:59;21.65;68.05
68912;SHT31;55953;51.650;-0.522;2023-10-08T11:16:28;21.72;68.47
68912;SHT31;55953;51.650;-0.522;2023-10-08T11:18:59;21.80;67.70
68912;SHT31;55953;51.650;-0.522;2023-10-08T11:21:50;21.80;67.29
68912;SHT31;55953;51.650;-0.522;2023-10-08T11:24:30;21.77;67.34
68912;SHT31;55953;51.650;-0.522;2023-10-08T11:27:01;21.73;66.96
68912;SHT31;55953;51.650;-0.522;2023-10-08T11:29:48;21.72;67.31
68912;SHT31;55953;51.650;-0.522;2023-10-08T11:32:24;21.70;67.22
68912;SHT31;55953;51.650;-0.522;2023-10-08T11:34:54;21.68;67.45
68912;SHT31;55953;51.650;-0.522;2023-10-08T11:37:28;21.69;67.34
68912;SHT31;55953;51.650;-0.522;2023-10-08T11:40:02;21.72;67.37
68912;SHT31;55953;51.650;-0.522;2023-10-08T11:42:44;21.76;67.18
68912;SHT31;55953;51.650;-0.522;2023-10-08T11:45:12;21.81;66.81
68912;SHT31;55953;51.650;-0.522;2023-10-08T11:47:46;21.83;66.45
68912;SHT31;55953;51.650;-0.522;2023-10-08T11:50:24;21.87;66.42
68912;SHT31;55953;51.650;-0.522;2023-10-08T11:53:02;21.95;64.78
68912;SHT31;55953;51.650;-0.522;2023-10-08T11:55:32;22.03;65.21
68912;SHT31;55953;51.650;-0.522;2023-10-08T11:58:04;22.09;64.14
68912;SHT31;55953;51.650;-0.522;2023-10-08T12:00:39;22.11;63.84
68912;SHT31;55953;51.650;-0.522;2023-10-08T12:03:15;22.12;62.93
68912;SHT31;55953;51.650;-0.522;2023-10-08T12:05:48;22.14;63.08
68912;SHT31;55953;51.650;-0.522;2023-10-08T12:08:18;22.18;63.33
68912;SHT31;55953;51.650;-0.522;2023-10-08T12:10:48;22.18;62.94
68912;SHT31;55953;51.650;-0.522;2023-10-08T12:13:22;22.23;63.77
68912;SHT31;55953;51.650;-0.522;2023-10-08T12:15:53;22.26;63.39
68912;SHT31;55953;51.650;-0.522;2023-10-08T12:18:39;22.37;63.13
68912;SHT31;55953;51.650;-0.522;2023-10-08T12:21:08;22.44;62.92
68912;SHT31;55953;51.650;-0.522;2023-10-08T12:23:38;22.54;63.47
68912;SHT31;55953;51.650;-0.522;2023-10-08T12:26:06;22.60;62.99
68912;SHT31;55953;51.650;-0.522;2023-10-08T12:28:37;22.64;62.15
68912;SHT31;55953;51.650;-0.522;2023-10-08T12:31:05;22.71;61.54
68912;SHT31;55953;51.650;-0.522;2023-10-08T12:33:33;22.78;61.82
68912;SHT31;55953;51.650;-0.522;2023-10-08T12:36:01;22.83;60.78
68912;SHT31;55953;51.650;-0.522;2023-10-08T12:38:40;22.87;60.97
68912;SHT31;55953;51.650;-0.522;2023-10-08T12:41:10;22.90;60.35
68912;SHT31;55953;51.650;-0.522;2023-10-08T12:43:42;22.86;59.91
68912;SHT31;55953;51.650;-0.522;2023-10-08T12:46:20;22.86;59.80
68912;SHT31;55953;51.650;-0.522;2023-10-08T12:48:52;22.90;60.43
68912;SHT31;55953;51.650;-0.522;2023-10-08T12:51:22;22.98;60.49
68912;SHT31;55953;51.650;-0.522;2023-10-08T12:53:53;23.02;60.00
68912;SHT31;55953;51.650;-0.522;2023-10-08T12:56:30;23.02;59.27
68912;SHT31;55953;51.650;-0.522;2023-10-08T12:59:16;23.06;60.10
68912;SHT31;55953;51.650;-0.522;2023-10-08T13:01:52;23.08;59.45
68912;SHT31;55953;51.650;-0.522;2023-10-08T13:04:23;23.09;59.52
68912;SHT31;55953;51.650;-0.522;2023-10-08T13:06:56;23.14;58.92
68912;SHT31;55953;51.650;-0.522;2023-10-08T13:09:29;23.21;58.47
68912;SHT31;55953;51.650;-0.522;2023-10-08T13:12:04;23.26;58.67
68912;SHT31;55953;51.650;-0.522;2023-10-08T13:14:33;23.30;58.38
68912;SHT31;55953;51.650;-0.522;2023-10-08T13:17:04;23.36;58.23
68912;SHT31;55953;51.650;-0.522;2023-10-08T13:19:31;23.42;58.66
68912;SHT31;55953;51.650;-0.522;2023-10-08T13:22:02;23.49;58.44
68912;SHT31;55953;51.650;-0.522;2023-10-08T13:24:34;23.48;58.18
68912;SHT31;55953;51.650;-0.522;2023-10-08T13:27:08;23.48;58.07
68912;SHT31;55953;51.650;-0.522;2023-10-08T13:29:36;23.52;57.24
68912;SHT31;55953;51.650;-0.522;2023-10-08T13:32:04;23.53;57.39
68912;SHT31;55953;51.650;-0.522;2023-10-08T13:34:32;23.48;57.05
68912;SHT31;55953;51.650;-0.522;2023-10-08T13:37:00;23.40;56.62
68912;SHT31;55953;51.650;-0.522;2023-10-08T13:39:28;23.39;56.53
68912;SHT31;55953;51.650;-0.522;2023-10-08T13:41:56;23.37;56.44
68912;SHT31;55953;51.650;-0.522;2023-10-08T13:44:29;23.36;56.96
68912;SHT31;55953;51.650;-0.522;2023-10-08T13:46:58;23.42;57.34
68912;SHT31;55953;51.650;-0.522;2023-10-08T13:49:28;23.47;57.00
68912;SHT31;55953;51.650;-0.522;2023-10-08T13:51:59;23.48;57.33
68912;SHT31;55953;51.650;-0.522;2023-10-08T13:54:27;23.51;57.58
68912;SHT31;55953;51.650;-0.522;2023-10-08T13:57:00;23.54;57.08
68912;SHT31;55953;51.650;-0.522;2023-10-08T13:59:29;23.53;56.84
68912;SHT31;55953;51.650;-0.522;2023-10-08T14:02:00;23.48;56.80
68912;SHT31;55953;51.650;-0.522;2023-10-08T14:04:42;23.47;57.58
68912;SHT31;55953;51.650;-0.522;2023-10-08T14:07:13;23.49;57.77
68912;SHT31;55953;51.650;-0.522;2023-10-08T14:09:45;23.56;57.67
68912;SHT31;55953;51.650;-0.522;2023-10-08T14:12:13;23.65;57.60
68912;SHT31;55953;51.650;-0.522;2023-10-08T14:14:42;23.68;56.03
68912;SHT31;55953;51.650;-0.522;2023-10-08T14:17:14;23.72;55.86
68912;SHT31;55953;51.650;-0.522;2023-10-08T14:19:43;23.72;54.11
68912;SHT31;55953;51.650;-0.522;2023-10-08T14:22:14;23.72;54.67
68912;SHT31;55953;51.650;-0.522;2023-10-08T14:24:43;23.81;54.91
68912;SHT31;55953;51.650;-0.522;2023-10-08T14:27:14;23.84;54.58
68912;SHT31;55953;51.650;-0.522;2023-10-08T14:29:46;23.86;54.93
68912;SHT31;55953;51.650;-0.522;2023-10-08T14:32:18;23.95;54.68
68912;SHT31;55953;51.650;-0.522;2023-10-08T14:34:47;24.03;54.26
68912;SHT31;55953;51.650;-0.522;2023-10-08T14:37:15;24.12;54.84
68912;SHT31;55953;51.650;-0.522;2023-10-08T14:40:02;24.19;54.98
68912;SHT31;55953;51.650;-0.522;2023-10-08T14:42:49;24.21;54.35
68912;SHT31;55953;51.650;-0.522;2023-10-08T14:45:27;24.22;54.35
68912;SHT31;55953;51.650;-0.522;2023-10-08T14:48:03;24.18;54.37
68912;SHT31;55953;51.650;-0.522;2023-10-08T14:50:39;24.09;54.90
68912;SHT31;55953;51.650;-0.522;2023-10-08T14:53:08;24.08;55.35
68912;SHT31;55953;51.650;-0.522;2023-10-08T14:55:36;24.03;54.94
68912;SHT31;55953;51.650;-0.522;2023-10-08T14:58:05;23.97;55.74
68912;SHT31;55953;51.650;-0.522;2023-10-08T15:00:38;23.92;56.09
68912;SHT31;55953;51.650;-0.522;2023-10-08T15:03:09;23.85;56.97
68912;SHT31;55953;51.650;-0.522;2023-10-08T15:05:39;23.77;57.30
68912;SHT31;55953;51.650;-0.522;2023-10-08T15:08:08;23.66;57.04
68912;SHT31;55953;51.650;-0.522;2023-10-08T15:10:38;23.54;57.07
68912;SHT31;55953;51.650;-0.522;2023-10-08T15:13:07;23.43;57.05
68912;SHT31;55953;51.650;-0.522;2023-10-08T15:15:35;23.36;57.30
68912;SHT31;55953;51.650;-0.522;2023-10-08T15:18:03;23.30;57.00
68912;SHT31;55953;51.650;-0.522;2023-10-08T15:20:34;23.24;57.51
68912;SHT31;55953;51.650;-0.522;2023-10-08T15:23:02;23.22;58.06
68912;SHT31;55953;51.650;-0.522;2023-10-08T15:25:32;23.23;57.55
68912;SHT31;55953;51.650;-0.522;2023-10-08T15:28:00;23.24;57.02
68912;SHT31;55953;51.650;-0.522;2023-10-08T15:30:28;23.17;56.00
68912;SHT31;55953;51.650;-0.522;2023-10-08T15:32:56;23.09;56.45
68912;SHT31;55953;51.650;-0.522;2023-10-08T15:35:25;23.01;56.89
68912;SHT31;55953;51.650;-0.522;2023-10-08T15:37:53;22.93;56.33
68912;SHT31;55953;51.650;-0.522;2023-10-08T15:40:23;22.89;56.28
68912;SHT31;55953;51.650;-0.522;2023-10-08T15:42:53;22.85;55.99
68912;SHT31;55953;51.650;-0.522;2023-10-08T15:45:24;22.79;55.96
68912;SHT31;55953;51.650;-0.522;2023-10-08T15:47:53;22.75;56.18
68912;SHT31;55953;51.650;-0.522;2023-10-08T15:50:21;22.71;56.54
68912;SHT31;55953;51.650;-0.522;2023-10-08T15:52:53;22.73;56.49
68912;SHT31;55953;51.650;-0.522;2023-10-08T15:55:23;22.73;56.51
68912;SHT31;55953;51.650;-0.522;2023-10-08T15:57:53;22.73;56.66
68912;SHT31;55953;51.650;-0.522;2023-10-08T16:00:21;22.75;57.16